Terminal Aerodrome Forecast
Issued by NWS Upton, NY

Home | Current Version | Previous Version | Text Only | Print | Product List | Glossary On
Versions: 1 2 3 4 5 6 7 8 9 10 11 12 13 14 15 16 17 18 19 20 21 22 23 24 25 26 27 28 29 30 31 32 33 34 35 36 37 38 39 40 41
000
FTUS41 KOKX 242340
TAFLGA
TAF
KLGA 242340Z 2500/2524 33018G24KT P6SM -SHRA SCT015 BKN025
      TEMPO 2500/2504 3SM -RA BR SCT007 OVC015
     FM250500 31018G24KT P6SM FEW015 SCT050
     FM251100 30015G21KT P6SM FEW015 SCT025
     FM251600 29013G19KT P6SM BKN025
     FM252100 28010KT P6SM SCT025 SCT060=

USA.gov is the U.S. government's official web portal to all federal, state and local government web resources and services.